sensor_id;sensor_type;location;lat;lon;timestamp;temperature;humidity
10419;DHT22;5256;48.728;9.140;2023-06-22T00:00:50;19.90;99.90
10419;DHT22;5256;48.728;9.140;2023-06-22T00:03:20;19.80;99.90
10419;DHT22;5256;48.728;9.140;2023-06-22T00:05:46;19.80;99.90
10419;DHT22;5256;48.728;9.140;2023-06-22T00:08:12;19.80;99.90
10419;DHT22;5256;48.728;9.140;2023-06-22T00:10:38;19.80;99.90
10419;DHT22;5256;48.728;9.140;2023-06-22T00:13:04;19.80;99.90
10419;DHT22;5256;48.728;9.140;2023-06-22T00:15:30;19.60;99.90
10419;DHT22;5256;48.728;9.140;2023-06-22T00:17:56;19.70;99.90
10419;DHT22;5256;48.728;9.140;2023-06-22T00:20:23;19.70;99.90
10419;DHT22;5256;48.728;9.140;2023-06-22T00:22:53;19.70;99.90
10419;DHT22;5256;48.728;9.140;2023-06-22T00:25:19;19.70;99.90
10419;DHT22;5256;48.728;9.140;2023-06-22T00:27:44;19.70;99.90
10419;DHT22;5256;48.728;9.140;2023-06-22T00:30:10;19.70;99.90
10419;DHT22;5256;48.728;9.140;2023-06-22T00:32:36;19.60;99.90
10419;DHT22;5256;48.728;9.140;2023-06-22T00:35:02;19.60;99.90
10419;DHT22;5256;48.728;9.140;2023-06-22T00:37:27;19.50;99.90
10419;DHT22;5256;48.728;9.140;2023-06-22T00:39:55;19.50;99.90
10419;DHT22;5256;48.728;9.140;2023-06-22T00:42:20;19.50;99.90
10419;DHT22;5256;48.728;9.140;2023-06-22T00:44:46;19.60;99.90
10419;DHT22;5256;48.728;9.140;2023-06-22T00:47:14;19.60;99.90
10419;DHT22;5256;48.728;9.140;2023-06-22T00:49:41;19.50;99.90
10419;DHT22;5256;48.728;9.140;2023-06-22T00:52:07;19.40;99.90
10419;DHT22;5256;48.728;9.140;2023-06-22T00:54:40;19.40;99.90
10419;DHT22;5256;48.728;9.140;2023-06-22T00:57:13;19.30;99.90
10419;DHT22;5256;48.728;9.140;2023-06-22T00:59:44;19.20;99.90
10419;DHT22;5256;48.728;9.140;2023-06-22T01:02:11;19.20;99.90
10419;DHT22;5256;48.728;9.140;2023-06-22T01:04:38;19.20;99.90
10419;DHT22;5256;48.728;9.140;2023-06-22T01:07:39;19.20;99.90
10419;DHT22;5256;48.728;9.140;2023-06-22T01:12:43;19.50;99.90
10419;DHT22;5256;48.728;9.140;2023-06-22T01:15:44;19.40;99.90
10419;DHT22;5256;48.728;9.140;2023-06-22T01:18:08;19.40;99.90
10419;DHT22;5256;48.728;9.140;2023-06-22T01:20:35;19.40;99.90
10419;DHT22;5256;48.728;9.140;2023-06-22T01:23:11;19.40;99.90
10419;DHT22;5256;48.728;9.140;2023-06-22T01:26:37;19.40;99.90
10419;DHT22;5256;48.728;9.140;2023-06-22T01:28:47;19.40;99.90
10419;DHT22;5256;48.728;9.140;2023-06-22T01:31:24;19.30;99.90
10419;DHT22;5256;48.728;9.140;2023-06-22T01:33:54;19.20;99.90
10419;DHT22;5256;48.728;9.140;2023-06-22T01:36:22;19.20;99.90
10419;DHT22;5256;48.728;9.140;2023-06-22T01:38:48;19.30;99.90
10419;DHT22;5256;48.728;9.140;2023-06-22T01:41:16;19.20;99.90
10419;DHT22;5256;48.728;9.140;2023-06-22T01:43:43;19.10;99.90
10419;DHT22;5256;48.728;9.140;2023-06-22T01:46:09;19.00;99.90
10419;DHT22;5256;48.728;9.140;2023-06-22T01:48:35;19.00;99.90
10419;DHT22;5256;48.728;9.140;2023-06-22T01:51:01;19.00;99.90
10419;DHT22;5256;48.728;9.140;2023-06-22T01:53:27;18.90;99.90
10419;DHT22;5256;48.728;9.140;2023-06-22T01:55:52;18.90;99.90
10419;DHT22;5256;48.728;9.140;2023-06-22T01:58:20;18.80;99.90
10419;DHT22;5256;48.728;9.140;2023-06-22T02:00:56;18.70;99.90
10419;DHT22;5256;48.728;9.140;2023-06-22T02:03:30;18.80;99.90
10419;DHT22;5256;48.728;9.140;2023-06-22T02:06:01;18.80;99.90
10419;DHT22;5256;48.728;9.140;2023-06-22T02:08:46;18.80;99.90
10419;DHT22;5256;48.728;9.140;2023-06-22T02:11:13;19.00;99.90
10419;DHT22;5256;48.728;9.140;2023-06-22T02:13:40;19.10;99.90
10419;DHT22;5256;48.728;9.140;2023-06-22T02:16:12;19.00;99.90
10419;DHT22;5256;48.728;9.140;2023-06-22T02:18:38;19.10;99.90
10419;DHT22;5256;48.728;9.140;2023-06-22T02:21:05;19.10;99.90
10419;DHT22;5256;48.728;9.140;2023-06-22T02:23:31;19.00;99.90
10419;DHT22;5256;48.728;9.140;2023-06-22T02:26:00;19.00;99.90
10419;DHT22;5256;48.728;9.140;2023-06-22T02:28:26;19.00;99.90
10419;DHT22;5256;48.728;9.140;2023-06-22T02:30:51;19.00;99.90
10419;DHT22;5256;48.728;9.140;2023-06-22T02:33:17;18.90;99.90
10419;DHT22;5256;48.728;9.140;2023-06-22T02:35:42;18.90;99.90
10419;DHT22;5256;48.728;9.140;2023-06-22T02:38:11;18.80;99.90
10419;DHT22;5256;48.728;9.140;2023-06-22T02:40:36;18.80;99.90
10419;DHT22;5256;48.728;9.140;2023-06-22T02:43:03;18.80;99.90
10419;DHT22;5256;48.728;9.140;2023-06-22T02:45:29;18.70;99.90
10419;DHT22;5256;48.728;9.140;2023-06-22T02:47:55;18.70;99.90
10419;DHT22;5256;48.728;9.140;2023-06-22T02:50:21;18.60;99.90
10419;DHT22;5256;48.728;9.140;2023-06-22T02:52:46;18.60;99.90
10419;DHT22;5256;48.728;9.140;2023-06-22T02:55:12;18.70;99.90
10419;DHT22;5256;48.728;9.140;2023-06-22T02:57:37;18.60;99.90
10419;DHT22;5256;48.728;9.140;2023-06-22T03:00:04;18.50;99.90
10419;DHT22;5256;48.728;9.140;2023-06-22T03:02:44;18.50;99.90
10419;DHT22;5256;48.728;9.140;2023-06-22T03:05:10;18.50;99.90
10419;DHT22;5256;48.728;9.140;2023-06-22T03:07:42;18.40;99.90
10419;DHT22;5256;48.728;9.140;2023-06-22T03:10:12;18.30;99.90
10419;DHT22;5256;48.728;9.140;2023-06-22T03:12:38;18.40;99.90
10419;DHT22;5256;48.728;9.140;2023-06-22T03:15:05;18.40;99.90
10419;DHT22;5256;48.728;9.140;2023-06-22T03:17:31;18.40;99.90
10419;DHT22;5256;48.728;9.140;2023-06-22T03:19:57;18.40;99.90
10419;DHT22;5256;48.728;9.140;2023-06-22T03:22:22;18.40;99.90
10419;DHT22;5256;48.728;9.140;2023-06-22T03:24:48;18.30;99.90
10419;DHT22;5256;48.728;9.140;2023-06-22T03:27:14;18.30;99.90
10419;DHT22;5256;48.728;9.140;2023-06-22T03:29:39;18.20;99.90
10419;DHT22;5256;48.728;9.140;2023-06-22T03:32:05;18.20;99.90
10419;DHT22;5256;48.728;9.140;2023-06-22T03:34:31;18.20;99.90
10419;DHT22;5256;48.728;9.140;2023-06-22T03:36:59;18.20;99.90
10419;DHT22;5256;48.728;9.140;2023-06-22T03:39:24;18.20;99.90
10419;DHT22;5256;48.728;9.140;2023-06-22T03:41:50;18.20;99.90
10419;DHT22;5256;48.728;9.140;2023-06-22T03:44:15;18.30;99.90
10419;DHT22;5256;48.728;9.140;2023-06-22T03:46:41;18.30;99.90
10419;DHT22;5256;48.728;9.140;2023-06-22T03:49:06;18.40;99.90
10419;DHT22;5256;48.728;9.140;2023-06-22T03:51:32;18.30;99.90
10419;DHT22;5256;48.728;9.140;2023-06-22T03:53:58;18.30;99.90
10419;DHT22;5256;48.728;9.140;2023-06-22T03:56:23;18.40;99.90
10419;DHT22;5256;48.728;9.140;2023-06-22T03:58:49;18.30;99.90
10419;DHT22;5256;48.728;9.140;2023-06-22T04:01:15;18.40;99.90
10419;DHT22;5256;48.728;9.140;2023-06-22T04:03:42;18.40;99.90
10419;DHT22;5256;48.728;9.140;2023-06-22T04:06:08;18.50;99.90
10419;DHT22;5256;48.728;9.140;2023-06-22T04:08:34;18.60;99.90
10419;DHT22;5256;48.728;9.140;2023-06-22T04:10:59;18.70;99.90
10419;DHT22;5256;48.728;9.140;2023-06-22T04:13:25;18.90;99.90
10419;DHT22;5256;48.728;9.140;2023-06-22T04:15:50;19.10;99.90
10419;DHT22;5256;48.728;9.140;2023-06-22T04:18:16;19.30;99.90
10419;DHT22;5256;48.728;9.140;2023-06-22T04:20:41;19.50;99.90
10419;DHT22;5256;48.728;9.140;2023-06-22T04:23:07;19.80;99.90
10419;DHT22;5256;48.728;9.140;2023-06-22T04:25:34;20.10;99.90
10419;DHT22;5256;48.728;9.140;2023-06-22T04:27:59;20.30;99.90
10419;DHT22;5256;48.728;9.140;2023-06-22T04:30:28;20.50;99.90
10419;DHT22;5256;48.728;9.140;2023-06-22T04:32:54;20.70;99.90
10419;DHT22;5256;48.728;9.140;2023-06-22T04:35:23;20.90;99.90
10419;DHT22;5256;48.728;9.140;2023-06-22T04:37:49;21.10;99.90
10419;DHT22;5256;48.728;9.140;2023-06-22T04:40:15;21.30;99.90
10419;DHT22;5256;48.728;9.140;2023-06-22T04:42:40;21.60;99.90
10419;DHT22;5256;48.728;9.140;2023-06-22T04:45:18;21.80;99.90
10419;DHT22;5256;48.728;9.140;2023-06-22T04:47:44;22.00;99.90
10419;DHT22;5256;48.728;9.140;2023-06-22T04:50:13;22.20;99.90
10419;DHT22;5256;48.728;9.140;2023-06-22T04:52:39;22.30;99.90
10419;DHT22;5256;48.728;9.140;2023-06-22T04:55:05;22.30;99.90
10419;DHT22;5256;48.728;9.140;2023-06-22T04:57:31;22.30;99.90
10419;DHT22;5256;48.728;9.140;2023-06-22T05:00:00;22.50;99.90
10419;DHT22;5256;48.728;9.140;2023-06-22T05:02:38;22.60;99.90
10419;DHT22;5256;48.728;9.140;2023-06-22T05:05:04;23.00;99.90
10419;DHT22;5256;48.728;9.140;2023-06-22T05:07:33;23.40;99.90
10419;DHT22;5256;48.728;9.140;2023-06-22T05:09:59;23.60;99.90
10419;DHT22;5256;48.728;9.140;2023-06-22T05:12:24;23.80;99.90
10419;DHT22;5256;48.728;9.140;2023-06-22T05:14:50;24.00;99.90
10419;DHT22;5256;48.728;9.140;2023-06-22T05:17:15;24.20;99.90
10419;DHT22;5256;48.728;9.140;2023-06-22T05:19:44;24.40;99.90
10419;DHT22;5256;48.728;9.140;2023-06-22T05:22:17;24.60;99.90
10419;DHT22;5256;48.728;9.140;2023-06-22T05:24:43;24.80;99.90
10419;DHT22;5256;48.728;9.140;2023-06-22T05:27:09;24.40;99.90
10419;DHT22;5256;48.728;9.140;2023-06-22T05:29:35;24.40;99.90
10419;DHT22;5256;48.728;9.140;2023-06-22T05:32:01;24.40;99.90
10419;DHT22;5256;48.728;9.140;2023-06-22T05:34:26;24.50;99.90
10419;DHT22;5256;48.728;9.140;2023-06-22T05:36:52;24.90;99.90
10419;DHT22;5256;48.728;9.140;2023-06-22T05:39:18;24.40;99.90
10419;DHT22;5256;48.728;9.140;2023-06-22T05:41:44;24.10;99.90
10419;DHT22;5256;48.728;9.140;2023-06-22T05:44:10;24.70;99.90
10419;DHT22;5256;48.728;9.140;2023-06-22T05:46:36;24.80;99.90
10419;DHT22;5256;48.728;9.140;2023-06-22T05:49:01;25.20;99.90
10419;DHT22;5256;48.728;9.140;2023-06-22T05:51:27;25.50;99.90
10419;DHT22;5256;48.728;9.140;2023-06-22T05:53:52;26.00;99.90
10419;DHT22;5256;48.728;9.140;2023-06-22T05:56:18;26.40;99.90
10419;DHT22;5256;48.728;9.140;2023-06-22T05:58:45;26.30;99.90
10419;DHT22;5256;48.728;9.140;2023-06-22T06:01:11;26.20;99.90
10419;DHT22;5256;48.728;9.140;2023-06-22T06:03:37;25.50;99.90
10419;DHT22;5256;48.728;9.140;2023-06-22T06:06:07;25.60;99.90
10419;DHT22;5256;48.728;9.140;2023-06-22T06:08:33;25.10;99.90
10419;DHT22;5256;48.728;9.140;2023-06-22T06:10:58;24.60;99.90
10419;DHT22;5256;48.728;9.140;2023-06-22T06:13:24;24.70;99.90
10419;DHT22;5256;48.728;9.140;2023-06-22T06:15:50;23.70;99.90
10419;DHT22;5256;48.728;9.140;2023-06-22T06:18:20;23.90;99.90
10419;DHT22;5256;48.728;9.140;2023-06-22T06:20:46;23.70;99.90
10419;DHT22;5256;48.728;9.140;2023-06-22T06:23:11;24.00;99.90
10419;DHT22;5256;48.728;9.140;2023-06-22T06:25:37;24.60;99.90
10419;DHT22;5256;48.728;9.140;2023-06-22T06:28:03;24.80;99.90
10419;DHT22;5256;48.728;9.140;2023-06-22T06:30:28;25.30;99.90
10419;DHT22;5256;48.728;9.140;2023-06-22T06:32:54;25.90;99.90
10419;DHT22;5256;48.728;9.140;2023-06-22T06:35:21;26.40;99.90
10419;DHT22;5256;48.728;9.140;2023-06-22T06:37:49;26.80;99.90
10419;DHT22;5256;48.728;9.140;2023-06-22T06:40:16;25.90;99.90
10419;DHT22;5256;48.728;9.140;2023-06-22T06:42:43;25.90;99.90
10419;DHT22;5256;48.728;9.140;2023-06-22T06:45:16;26.30;99.90
10419;DHT22;5256;48.728;9.140;2023-06-22T06:47:41;26.40;99.90
10419;DHT22;5256;48.728;9.140;2023-06-22T06:50:07;26.70;99.90
10419;DHT22;5256;48.728;9.140;2023-06-22T06:52:33;27.00;99.90
10419;DHT22;5256;48.728;9.140;2023-06-22T06:54:59;27.30;99.90
10419;DHT22;5256;48.728;9.140;2023-06-22T06:57:25;27.20;99.90
10419;DHT22;5256;48.728;9.140;2023-06-22T06:59:54;27.30;99.90
10419;DHT22;5256;48.728;9.140;2023-06-22T07:02:22;28.10;99.90
10419;DHT22;5256;48.728;9.140;2023-06-22T07:04:47;28.40;99.90
10419;DHT22;5256;48.728;9.140;2023-06-22T07:07:14;28.10;99.90
10419;DHT22;5256;48.728;9.140;2023-06-22T07:09:39;28.70;99.90
10419;DHT22;5256;48.728;9.140;2023-06-22T07:12:05;29.00;99.90
10419;DHT22;5256;48.728;9.140;2023-06-22T07:14:31;29.20;99.90
10419;DHT22;5256;48.728;9.140;2023-06-22T07:16:57;29.80;99.90
10419;DHT22;5256;48.728;9.140;2023-06-22T07:19:27;29.90;99.90
10419;DHT22;5256;48.728;9.140;2023-06-22T07:21:53;30.00;99.90
10419;DHT22;5256;48.728;9.140;2023-06-22T07:24:22;30.10;99.90
10419;DHT22;5256;48.728;9.140;2023-06-22T07:26:48;30.50;99.90
10419;DHT22;5256;48.728;9.140;2023-06-22T07:29:18;30.60;99.90
10419;DHT22;5256;48.728;9.140;2023-06-22T07:31:45;30.30;99.90
10419;DHT22;5256;48.728;9.140;2023-06-22T07:34:10;29.70;99.90
10419;DHT22;5256;48.728;9.140;2023-06-22T07:36:37;30.50;99.90
10419;DHT22;5256;48.728;9.140;2023-06-22T07:39:03;31.00;99.90
10419;DHT22;5256;48.728;9.140;2023-06-22T07:41:29;30.60;99.90
10419;DHT22;5256;48.728;9.140;2023-06-22T07:43:55;29.50;99.90
10419;DHT22;5256;48.728;9.140;2023-06-22T07:46:21;28.80;99.90
10419;DHT22;5256;48.728;9.140;2023-06-22T07:48:46;29.40;99.90
10419;DHT22;5256;48.728;9.140;2023-06-22T07:51:12;30.00;99.90
10419;DHT22;5256;48.728;9.140;2023-06-22T07:53:39;30.20;99.90
10419;DHT22;5256;48.728;9.140;2023-06-22T07:56:05;30.90;99.90
10419;DHT22;5256;48.728;9.140;2023-06-22T07:58:32;31.20;99.90
10419;DHT22;5256;48.728;9.140;2023-06-22T08:00:58;31.60;99.90
10419;DHT22;5256;48.728;9.140;2023-06-22T08:03:24;31.80;99.90
10419;DHT22;5256;48.728;9.140;2023-06-22T08:05:50;31.60;99.90
10419;DHT22;5256;48.728;9.140;2023-06-22T08:08:15;31.90;99.90
10419;DHT22;5256;48.728;9.140;2023-06-22T08:10:42;31.60;99.60
10419;DHT22;5256;48.728;9.140;2023-06-22T08:13:08;31.60;99.80
10419;DHT22;5256;48.728;9.140;2023-06-22T08:15:33;31.70;99.90
10419;DHT22;5256;48.728;9.140;2023-06-22T08:17:59;31.90;99.60
10419;DHT22;5256;48.728;9.140;2023-06-22T08:20:27;31.40;99.50
10419;DHT22;5256;48.728;9.140;2023-06-22T08:22:54;31.50;99.50
10419;DHT22;5256;48.728;9.140;2023-06-22T08:25:20;31.10;99.90
10419;DHT22;5256;48.728;9.140;2023-06-22T08:27:46;31.00;99.90
10419;DHT22;5256;48.728;9.140;2023-06-22T08:30:13;31.30;99.90
10419;DHT22;5256;48.728;9.140;2023-06-22T08:32:39;31.30;99.90
10419;DHT22;5256;48.728;9.140;2023-06-22T08:35:04;31.10;99.90
10419;DHT22;5256;48.728;9.140;2023-06-22T08:37:31;31.20;99.90
10419;DHT22;5256;48.728;9.140;2023-06-22T08:40:01;31.20;99.90
10419;DHT22;5256;48.728;9.140;2023-06-22T08:42:30;31.00;99.90
10419;DHT22;5256;48.728;9.140;2023-06-22T08:44:57;30.70;99.90
10419;DHT22;5256;48.728;9.140;2023-06-22T08:47:22;31.00;99.90
10419;DHT22;5256;48.728;9.140;2023-06-22T08:49:48;31.10;99.90
10419;DHT22;5256;48.728;9.140;2023-06-22T08:52:14;31.00;99.90
10419;DHT22;5256;48.728;9.140;2023-06-22T08:54:40;31.40;99.90
10419;DHT22;5256;48.728;9.140;2023-06-22T08:57:06;31.90;99.90
10419;DHT22;5256;48.728;9.140;2023-06-22T08:59:31;31.70;99.80
10419;DHT22;5256;48.728;9.140;2023-06-22T09:01:57;31.40;99.90
10419;DHT22;5256;48.728;9.140;2023-06-22T09:04:23;31.40;99.90
10419;DHT22;5256;48.728;9.140;2023-06-22T09:06:49;31.10;99.90
10419;DHT22;5256;48.728;9.140;2023-06-22T09:09:16;30.60;99.90
10419;DHT22;5256;48.728;9.140;2023-06-22T09:11:42;29.90;99.90
10419;DHT22;5256;48.728;9.140;2023-06-22T09:14:08;30.20;99.90
10419;DHT22;5256;48.728;9.140;2023-06-22T09:16:34;31.30;99.90
10419;DHT22;5256;48.728;9.140;2023-06-22T09:19:00;32.10;99.90
10419;DHT22;5256;48.728;9.140;2023-06-22T09:21:25;32.10;99.60
10419;DHT22;5256;48.728;9.140;2023-06-22T09:23:51;32.40;99.70
10419;DHT22;5256;48.728;9.140;2023-06-22T09:26:21;32.80;99.50
10419;DHT22;5256;48.728;9.140;2023-06-22T09:28:47;33.00;98.70
10419;DHT22;5256;48.728;9.140;2023-06-22T09:31:13;33.10;99.20
10419;DHT22;5256;48.728;9.140;2023-06-22T09:33:40;33.40;98.80
10419;DHT22;5256;48.728;9.140;2023-06-22T09:36:06;33.80;98.30
10419;DHT22;5256;48.728;9.140;2023-06-22T09:38:36;33.50;98.30
10419;DHT22;5256;48.728;9.140;2023-06-22T09:41:01;33.60;98.00
10419;DHT22;5256;48.728;9.140;2023-06-22T09:43:27;33.80;98.90
10419;DHT22;5256;48.728;9.140;2023-06-22T09:45:53;34.40;98.10
10419;DHT22;5256;48.728;9.140;2023-06-22T09:48:18;34.50;97.50
10419;DHT22;5256;48.728;9.140;2023-06-22T09:50:44;34.50;97.30
10419;DHT22;5256;48.728;9.140;2023-06-22T09:53:09;33.90;97.60
10419;DHT22;5256;48.728;9.140;2023-06-22T09:55:35;34.10;97.70
10419;DHT22;5256;48.728;9.140;2023-06-22T09:58:00;34.00;97.80
10419;DHT22;5256;48.728;9.140;2023-06-22T10:00:26;34.80;97.20
10419;DHT22;5256;48.728;9.140;2023-06-22T10:02:52;35.20;96.60
10419;DHT22;5256;48.728;9.140;2023-06-22T10:05:18;34.40;96.50
10419;DHT22;5256;48.728;9.140;2023-06-22T10:07:43;34.30;97.00
10419;DHT22;5256;48.728;9.140;2023-06-22T10:10:10;33.90;97.20
10419;DHT22;5256;48.728;9.140;2023-06-22T10:12:36;33.50;97.30
10419;DHT22;5256;48.728;9.140;2023-06-22T10:15:02;33.30;97.30
10419;DHT22;5256;48.728;9.140;2023-06-22T10:17:27;33.00;97.90
10419;DHT22;5256;48.728;9.140;2023-06-22T10:19:53;33.20;97.90
10419;DHT22;5256;48.728;9.140;2023-06-22T10:22:19;33.40;97.70
10419;DHT22;5256;48.728;9.140;2023-06-22T10:24:44;33.30;97.60
10419;DHT22;5256;48.728;9.140;2023-06-22T10:27:11;33.60;97.70
10419;DHT22;5256;48.728;9.140;2023-06-22T10:29:37;33.70;97.60
10419;DHT22;5256;48.728;9.140;2023-06-22T10:32:03;34.00;97.40
10419;DHT22;5256;48.728;9.140;2023-06-22T10:34:29;34.00;97.60
10419;DHT22;5256;48.728;9.140;2023-06-22T10:36:54;34.50;97.10
10419;DHT22;5256;48.728;9.140;2023-06-22T10:39:20;34.80;96.80
10419;DHT22;5256;48.728;9.140;2023-06-22T10:41:45;35.10;96.20
10419;DHT22;5256;48.728;9.140;2023-06-22T10:44:11;35.60;95.60
10419;DHT22;5256;48.728;9.140;2023-06-22T10:46:37;35.40;95.30
10419;DHT22;5256;48.728;9.140;2023-06-22T10:49:03;35.50;95.10
10419;DHT22;5256;48.728;9.140;2023-06-22T10:51:29;35.40;95.20
10419;DHT22;5256;48.728;9.140;2023-06-22T10:53:54;34.70;95.70
10419;DHT22;5256;48.728;9.140;2023-06-22T10:56:20;34.30;95.70
10419;DHT22;5256;48.728;9.140;2023-06-22T10:58:46;33.30;96.60
10419;DHT22;5256;48.728;9.140;2023-06-22T11:01:11;33.40;96.80
10419;DHT22;5256;48.728;9.140;2023-06-22T11:03:37;33.50;97.10
10419;DHT22;5256;48.728;9.140;2023-06-22T11:06:03;33.80;97.00
10419;DHT22;5256;48.728;9.140;2023-06-22T11:08:28;33.60;96.70
10419;DHT22;5256;48.728;9.140;2023-06-22T11:10:54;33.70;96.80
10419;DHT22;5256;48.728;9.140;2023-06-22T11:13:19;33.40;96.70
10419;DHT22;5256;48.728;9.140;2023-06-22T11:15:45;33.30;96.80
10419;DHT22;5256;48.728;9.140;2023-06-22T11:18:10;33.00;96.90
10419;DHT22;5256;48.728;9.140;2023-06-22T11:20:36;33.20;97.60
10419;DHT22;5256;48.728;9.140;2023-06-22T11:23:07;33.10;97.50
10419;DHT22;5256;48.728;9.140;2023-06-22T11:25:33;32.80;97.10
10419;DHT22;5256;48.728;9.140;2023-06-22T11:28:04;32.60;97.40
10419;DHT22;5256;48.728;9.140;2023-06-22T11:30:30;32.80;97.50
10419;DHT22;5256;48.728;9.140;2023-06-22T11:32:59;32.80;97.90
10419;DHT22;5256;48.728;9.140;2023-06-22T11:35:24;32.80;97.80
10419;DHT22;5256;48.728;9.140;2023-06-22T11:37:50;33.00;97.90
10419;DHT22;5256;48.728;9.140;2023-06-22T11:40:15;33.30;97.90
10419;DHT22;5256;48.728;9.140;2023-06-22T11:42:43;33.60;97.20
10419;DHT22;5256;48.728;9.140;2023-06-22T11:45:08;34.00;97.10
10419;DHT22;5256;48.728;9.140;2023-06-22T11:47:34;34.20;97.00
10419;DHT22;5256;48.728;9.140;2023-06-22T11:50:00;34.30;96.80
10419;DHT22;5256;48.728;9.140;2023-06-22T11:52:25;34.30;96.50
10419;DHT22;5256;48.728;9.140;2023-06-22T11:54:52;34.20;96.80
10419;DHT22;5256;48.728;9.140;2023-06-22T11:57:18;33.80;97.30
10419;DHT22;5256;48.728;9.140;2023-06-22T11:59:43;33.70;96.90
10419;DHT22;5256;48.728;9.140;2023-06-22T12:02:09;33.40;97.60
10419;DHT22;5256;48.728;9.140;2023-06-22T12:04:35;33.60;97.60
10419;DHT22;5256;48.728;9.140;2023-06-22T12:07:00;33.80;97.60
10419;DHT22;5256;48.728;9.140;2023-06-22T12:09:26;33.90;97.50
10419;DHT22;5256;48.728;9.140;2023-06-22T12:11:51;33.70;97.30
10419;DHT22;5256;48.728;9.140;2023-06-22T12:14:17;33.50;97.70
10419;DHT22;5256;48.728;9.140;2023-06-22T12:16:42;33.00;97.70
10419;DHT22;5256;48.728;9.140;2023-06-22T12:19:10;32.80;97.70
10419;DHT22;5256;48.728;9.140;2023-06-22T12:21:37;32.80;98.20
10419;DHT22;5256;48.728;9.140;2023-06-22T12:24:03;33.00;98.50
10419;DHT22;5256;48.728;9.140;2023-06-22T12:26:28;32.80;97.90
10419;DHT22;5256;48.728;9.140;2023-06-22T12:28:54;32.70;98.30
10419;DHT22;5256;48.728;9.140;2023-06-22T12:31:19;32.80;98.30
10419;DHT22;5256;48.728;9.140;2023-06-22T12:33:45;32.90;98.20
10419;DHT22;5256;48.728;9.140;2023-06-22T12:36:10;32.80;98.00
10419;DHT22;5256;48.728;9.140;2023-06-22T12:38:36;32.60;98.20
10419;DHT22;5256;48.728;9.140;2023-06-22T12:41:01;32.50;98.40
10419;DHT22;5256;48.728;9.140;2023-06-22T12:43:27;32.20;98.80
10419;DHT22;5256;48.728;9.140;2023-06-22T12:45:53;32.20;99.00
10419;DHT22;5256;48.728;9.140;2023-06-22T12:48:19;32.20;99.20
10419;DHT22;5256;48.728;9.140;2023-06-22T12:50:45;31.90;99.50
10419;DHT22;5256;48.728;9.140;2023-06-22T12:53:10;31.80;99.90
10419;DHT22;5256;48.728;9.140;2023-06-22T12:55:36;31.70;99.90
10419;DHT22;5256;48.728;9.140;2023-06-22T12:58:01;31.60;99.90
10419;DHT22;5256;48.728;9.140;2023-06-22T13:00:27;31.50;99.90
10419;DHT22;5256;48.728;9.140;2023-06-22T13:02:53;31.40;99.90
10419;DHT22;5256;48.728;9.140;2023-06-22T13:05:18;31.30;99.90
10419;DHT22;5256;48.728;9.140;2023-06-22T13:07:44;31.50;99.90
10419;DHT22;5256;48.728;9.140;2023-06-22T13:10:11;31.40;99.90
10419;DHT22;5256;48.728;9.140;2023-06-22T13:12:36;31.20;99.90
10419;DHT22;5256;48.728;9.140;2023-06-22T13:15:02;31.00;99.90
10419;DHT22;5256;48.728;9.140;2023-06-22T13:17:28;31.00;99.90
10419;DHT22;5256;48.728;9.140;2023-06-22T13:19:54;31.20;99.90
10419;DHT22;5256;48.728;9.140;2023-06-22T13:22:32;31.40;99.90
10419;DHT22;5256;48.728;9.140;2023-06-22T13:24:59;31.60;99.90
10419;DHT22;5256;48.728;9.140;2023-06-22T13:27:25;32.00;99.80
10419;DHT22;5256;48.728;9.140;2023-06-22T13:29:51;32.30;99.00
10419;DHT22;5256;48.728;9.140;2023-06-22T13:32:16;32.50;98.30
10419;DHT22;5256;48.728;9.140;2023-06-22T13:34:43;32.40;98.20
10419;DHT22;5256;48.728;9.140;2023-06-22T13:37:08;32.50;98.10
10419;DHT22;5256;48.728;9.140;2023-06-22T13:39:34;32.60;98.10
10419;DHT22;5256;48.728;9.140;2023-06-22T13:41:59;32.60;98.40
10419;DHT22;5256;48.728;9.140;2023-06-22T13:44:25;32.70;98.50
10419;DHT22;5256;48.728;9.140;2023-06-22T13:46:56;32.60;97.40
10419;DHT22;5256;48.728;9.140;2023-06-22T13:49:22;32.50;97.80
10419;DHT22;5256;48.728;9.140;2023-06-22T13:51:48;32.40;97.80
10419;DHT22;5256;48.728;9.140;2023-06-22T13:54:14;32.30;98.30
10419;DHT22;5256;48.728;9.140;2023-06-22T13:56:40;32.30;98.50
10419;DHT22;5256;48.728;9.140;2023-06-22T13:59:05;32.20;98.70
10419;DHT22;5256;48.728;9.140;2023-06-22T14:01:34;32.20;98.30
10419;DHT22;5256;48.728;9.140;2023-06-22T14:04:00;32.50;98.20
10419;DHT22;5256;48.728;9.140;2023-06-22T14:06:27;32.70;98.20
10419;DHT22;5256;48.728;9.140;2023-06-22T14:08:52;33.10;98.70
10419;DHT22;5256;48.728;9.140;2023-06-22T14:11:18;33.50;98.40
10419;DHT22;5256;48.728;9.140;2023-06-22T14:13:43;34.00;97.90
10419;DHT22;5256;48.728;9.140;2023-06-22T14:16:09;34.50;97.10
10419;DHT22;5256;48.728;9.140;2023-06-22T14:18:34;35.00;96.50
10419;DHT22;5256;48.728;9.140;2023-06-22T14:21:00;35.80;95.20
10419;DHT22;5256;48.728;9.140;2023-06-22T14:23:27;36.00;95.40
10419;DHT22;5256;48.728;9.140;2023-06-22T14:25:52;36.30;94.80
10419;DHT22;5256;48.728;9.140;2023-06-22T14:28:18;36.10;93.80
10419;DHT22;5256;48.728;9.140;2023-06-22T14:30:44;35.30;93.20
10419;DHT22;5256;48.728;9.140;2023-06-22T14:33:09;34.50;92.90
10419;DHT22;5256;48.728;9.140;2023-06-22T14:35:35;34.10;92.40
10419;DHT22;5256;48.728;9.140;2023-06-22T14:38:00;34.40;92.20
10419;DHT22;5256;48.728;9.140;2023-06-22T14:40:26;34.70;90.60
10419;DHT22;5256;48.728;9.140;2023-06-22T14:42:52;34.70;87.80
10419;DHT22;5256;48.728;9.140;2023-06-22T14:45:17;34.80;88.90
10419;DHT22;5256;48.728;9.140;2023-06-22T14:47:43;34.80;87.50
10419;DHT22;5256;48.728;9.140;2023-06-22T14:50:08;34.70;87.30
10419;DHT22;5256;48.728;9.140;2023-06-22T14:52:34;34.40;84.50
10419;DHT22;5256;48.728;9.140;2023-06-22T14:54:59;33.90;83.80
10419;DHT22;5256;48.728;9.140;2023-06-22T14:57:25;33.60;82.50
10419;DHT22;5256;48.728;9.140;2023-06-22T14:59:50;33.50;82.30
10419;DHT22;5256;48.728;9.140;2023-06-22T15:02:16;33.30;81.90
10419;DHT22;5256;48.728;9.140;2023-06-22T15:04:42;32.80;82.60
10419;DHT22;5256;48.728;9.140;2023-06-22T15:07:08;32.60;84.80
10419;DHT22;5256;48.728;9.140;2023-06-22T15:09:33;32.60;84.20
10419;DHT22;5256;48.728;9.140;2023-06-22T15:11:59;32.70;84.00
10419;DHT22;5256;48.728;9.140;2023-06-22T15:14:27;32.60;83.20
10419;DHT22;5256;48.728;9.140;2023-06-22T15:16:53;32.80;83.70
10419;DHT22;5256;48.728;9.140;2023-06-22T15:19:19;32.90;83.10
10419;DHT22;5256;48.728;9.140;2023-06-22T15:21:44;33.20;83.60
10419;DHT22;5256;48.728;9.140;2023-06-22T15:24:11;34.00;82.10
10419;DHT22;5256;48.728;9.140;2023-06-22T15:26:36;34.00;80.70
10419;DHT22;5256;48.728;9.140;2023-06-22T15:29:02;33.40;81.10
10419;DHT22;5256;48.728;9.140;2023-06-22T15:31:27;32.80;82.30
10419;DHT22;5256;48.728;9.140;2023-06-22T15:33:54;32.60;82.60
10419;DHT22;5256;48.728;9.140;2023-06-22T15:36:20;32.50;83.50
10419;DHT22;5256;48.728;9.140;2023-06-22T15:38:45;32.30;83.00
10419;DHT22;5256;48.728;9.140;2023-06-22T15:41:12;32.00;83.20
10419;DHT22;5256;48.728;9.140;2023-06-22T15:43:38;31.90;83.30